Terminal Aerodrome Forecast
Issued by NWS Missoula, MT

Home | Current Version | Previous Version | Text Only | Print | Product List | Glossary On
Versions: 1 2 3 4 5 6 7 8 9 10 11 12 13 14 15
275
FTUS45 KMSO 211120
TAFGPI
TAF
KGPI 211120Z 2112/2212 19005KT P6SM SKC
     FM211800 18012KT P6SM SCT060
     FM212100 22013G21KT P6SM SCT060 BKN150
     FM220300 VRB04KT P6SM SCT140=

USA.gov is the U.S. government's official web portal to all federal, state and local government web resources and services.